MDT,Max TemperatureF,Mean TemperatureF,Min TemperatureF,Max Dew PointF,MeanDew PointF,Min DewpointF,Max Humidity, Mean Humidity, Min Humidity, Max Sea Level PressureIn, Mean Sea Level PressureIn, Min Sea Level PressureIn, Max VisibilityMiles, Mean VisibilityMiles, Min VisibilityMiles, Max Wind SpeedMPH, Mean Wind SpeedMPH, Max Gust SpeedMPH,PrecipitationIn, CloudCover, Events, WindDirDegrees
2012-9-1,87,70,53,50,40,36,60,39,17,30.06,30.00,29.94,10,10,10,30,7,39,T,1,Rain,303
2012-9-2,86,72,58,49,45,41,67,47,26,30.10,30.00,29.94,10,10,10,18,6,24,T,1,,262
2012-9-3,87,73,58,50,40,29,69,41,13,30.28,30.01,29.91,10,10,10,10,7,13,T,1,Rain,275
2012-9-4,88,68,47,40,33,25,61,37,13,30.26,30.00,29.91,10,10,10,26,8,32,0.00,0,,277
2012-9-5,88,70,51,32,22,14,33,20,6,30.01,29.92,29.84,10,10,10,22,4,29,0.00,1,,269
2012-9-6,87,66,45,33,25,21,42,26,10,30.02,29.95,29.89,10,10,10,17,4,23,0.00,1,,328
2012-9-7,88,70,52,40,33,24,51,33,15,30.02,29.94,29.86,10,10,10,23,7,29,0.00,1,,18
2012-9-8,75,64,52,47,44,41,66,50,33,30.33,30.14,30.02,10,10,10,21,5,25,T,4,Rain,87
2012-9-9,79,61,43,44,39,33,89,55,21,30.23,30.14,30.04,10,10,10,14,2,17,0.00,0,,186
2012-9-10,80,64,48,47,41,34,71,45,19,30.12,30.03,29.91,10,10,10,25,6,30,0.00,1,,270
2012-9-11,78,66,53,51,46,43,71,50,29,30.00,29.96,29.88,10,10,10,29,6,37,T,5,Rain,266
2012-9-12,72,62,51,55,52,48,100,74,47,30.24,30.10,29.94,10,10,2,26,4,32,0.36,7,Rain-Thunderstorm,243
2012-9-13,74,59,43,51,45,33,100,63,25,30.45,30.35,30.15,10,6,0,16,4,20,0.00,2,Fog,356
2012-9-14,72,57,42,46,41,36,96,64,31,30.41,30.31,30.22,10,10,10,17,5,22,0.00,0,,231
2012-9-15,80,61,41,40,35,24,82,50,17,30.29,30.17,30.03,10,10,10,20,6,26,0.00,0,,268
2012-9-16,83,62,40,34,24,15,58,34,9,30.16,30.03,29.92,10,10,10,24,7,32,0.00,0,,294
2012-9-17,79,60,40,28,23,18,55,34,12,30.12,29.98,29.88,10,10,10,28,7,38,0.00,1,,4
2012-9-18,79,57,34,30,24,18,59,36,12,30.23,30.12,30.04,10,10,10,21,6,28,0.00,0,,254
2012-9-19,80,58,35,26,20,13,59,34,8,30.18,30.10,30.03,10,10,10,20,6,26,0.00,0,,261
2012-9-20,81,58,35,25,17,14,48,28,8,30.14,30.05,29.96,10,10,10,23,6,30,0.00,0,,271
2012-9-21,80,58,36,25,19,11,52,30,7,30.16,30.08,30.02,10,10,10,17,4,23,0.00,0,,316
2012-9-22,81,58,35,23,18,11,56,32,7,30.21,30.13,30.06,10,10,10,20,5,24,0.00,0,,308
2012-9-23,80,61,42,31,24,19,45,28,11,30.20,30.11,30.06,10,10,10,21,5,26,0.00,0,,333
2012-9-24,72,60,48,48,39,29,93,61,28,30.18,30.06,29.96,10,10,2,31,6,37,0.08,5,Rain-Thunderstorm,88
2012-9-25,66,54,42,48,43,36,100,68,36,30.16,30.06,29.91,10,7,0,21,7,28,T,5,Fog-Rain-Thunderstorm,273
2012-9-26,70,56,42,45,39,31,89,58,26,30.17,30.03,29.95,10,10,10,23,6,32,0.01,3,Rain,320
2012-9-27,74,56,38,38,34,31,85,54,23,30.18,30.09,30.02,10,10,10,20,5,28,0.00,1,,252
2012-9-28,74,56,37,35,31,28,82,51,20,30.14,30.05,29.97,10,10,10,16,5,23,0.00,0,,298
2012-9-29,76,57,37,41,32,22,76,45,14,30.16,30.07,29.96,10,10,10,22,6,30,0.00,1,,289
2012-9-30,77,57,37,34,27,18,64,39,13,30.13,30.05,29.96,10,10,10,18,5,24,0.00,1,,356